Time;durP1;ratioP1;P1;durP2;ratioP2;P2;SDS_P1;SDS_P2;PMS_P1;PMS_P2;Temp;Humidity;BMP_temperature;BMP_pressure;BME280_temperature;BME280_humidity;BME280_pressure;Samples;Min_cycle;Max_cycle;Signal;HPM_P1;HPM_P2
2021/12/17 00:00:41;;;;;;;21.87;5.80;;;;;;;7.84;100.00;-19371.44;5020972;28;20785;-65
2021/12/17 00:03:12;;;;;;;20.23;5.70;;;;;;;7.82;100.00;-19370.94;5020197;28;20033;-65
2021/12/17 00:06:11;;;;;;;24.13;5.73;;;;;;;7.81;100.00;-19370.66;5020943;28;20061;-65
2021/12/17 00:08:39;;;;;;;23.73;6.10;;;;;;;7.80;100.00;-19370.41;5020076;28;20037;-65
2021/12/17 00:11:05;;;;;;;22.77;6.97;;;;;;;7.78;100.00;-19369.88;5020962;28;20108;-65
2021/12/17 00:13:32;;;;;;;29.13;7.83;;;;;;;7.77;100.00;-19369.75;5020771;28;20116;-65
2021/12/17 00:15:58;;;;;;;27.27;7.10;;;;;;;7.75;100.00;-19369.22;5020770;28;20065;-65
2021/12/17 00:18:40;;;;;;;24.57;6.37;;;;;;;7.76;100.00;-19221.78;5020450;28;20441;-65
2021/12/17 00:53:34;;;;;;;28.67;7.07;;;;;;;7.60;100.00;-15946.78;4962095;28;20042;-67
2021/12/17 00:55:59;;;;;;;26.03;6.87;;;;;;;7.60;100.00;-15222.69;4962089;28;20043;-67
2021/12/17 00:58:25;;;;;;;28.40;7.57;;;;;;;7.60;100.00;-15051.81;4961510;28;20482;-67
2021/12/17 01:00:51;;;;;;;27.53;7.20;;;;;;;7.60;100.00;-14284.88;4962072;28;20767;-67
2021/12/17 01:03:16;;;;;;;30.80;7.47;;;;;;;7.60;100.00;-14377.91;4961964;28;20698;-67
2021/12/17 01:05:43;;;;;;;31.27;8.43;;;;;;;7.59;100.00;-13935.03;4962337;28;20055;-67
2021/12/17 01:08:08;;;;;;;31.80;8.17;;;;;;;7.56;100.00;-11833.88;4961612;28;20061;-65
2021/12/17 01:10:53;;;;;;;29.73;7.17;;;;;;;7.55;100.00;-12183.53;4961870;28;20039;-65
2021/12/17 01:13:18;;;;;;;32.00;7.57;;;;;;;7.56;100.00;-11136.66;4958204;28;20034;-65
2021/12/17 01:15:44;;;;;;;38.50;7.87;;;;;;;7.54;100.00;-11063.47;4961809;28;20035;-65
2021/12/17 01:18:14;;;;;;;33.30;8.67;;;;;;;7.54;100.00;-11267.34;4961513;28;20545;-65
2021/12/17 01:36:50;;;;;;;28.77;6.47;;;;;;;7.49;100.00;-6705.59;4997703;28;20029;-67
2021/12/17 01:41:54;;;;;;;29.83;6.90;;;;;;;7.42;100.00;-5296.25;5002837;28;20108;-67
2021/12/17 01:44:19;;;;;;;30.03;7.10;;;;;;;7.39;100.00;-6223.72;5002944;28;20022;-67
2021/12/17 01:46:49;;;;;;;36.87;7.20;;;;;;;7.40;100.00;-5969.22;5003268;28;20053;-67
2021/12/17 01:49:30;;;;;;;28.63;7.40;;;;;;;7.40;100.00;-4413.72;5002953;28;20754;-67
2021/12/17 02:00:14;;;;;;;28.20;6.90;;;;;;;7.31;100.00;-230.56;5000762;28;20022;-67
2021/12/17 02:02:46;;;;;;;29.17;6.87;;;;;;;7.30;100.00;-1091.34;5026667;23;20144;-68
2021/12/17 02:05:13;;;;;;;25.45;5.90;;;;;;;7.31;100.00;-311.34;5041817;28;20029;-67
2021/12/17 02:07:39;;;;;;;27.80;6.70;;;;;;;7.31;100.00;496.63;5042152;28;20110;-67
2021/12/17 02:28:58;;;;;;;30.97;7.37;;;;;;;7.33;100.00;2924.31;5036658;28;20084;-67
2021/12/17 02:33:52;;;;;;;34.53;6.33;;;;;;;7.34;100.00;1466.59;5032085;28;20040;-67
2021/12/17 02:36:21;;;;;;;33.57;7.03;;;;;;;7.35;100.00;4499.28;5042289;28;20171;-67
2021/12/17 02:38:47;;;;;;;32.13;7.53;;;;;;;7.34;100.00;4863.25;5041011;28;20021;-67
2021/12/17 02:46:41;;;;;;;32.77;5.73;;;;;;;7.36;100.00;2694.66;5039320;28;20523;-67
2021/12/17 02:49:07;;;;;;;31.83;6.07;;;;;;;7.35;100.00;3841.97;5042091;28;20021;-67
2021/12/17 02:51:33;;;;;;;27.23;5.47;;;;;;;7.33;100.00;5510.56;5039684;28;20056;-67
2021/12/17 02:53:59;;;;;;;29.33;5.93;;;;;;;7.33;100.00;4923.81;5033300;28;20074;-67
2021/12/17 02:56:25;;;;;;;38.10;6.70;;;;;;;7.31;100.00;3411.84;5041047;28;20028;-67
2021/12/17 02:58:53;;;;;;;25.97;5.53;;;;;;;7.30;100.00;3934.97;5041573;28;20393;-67
2021/12/17 03:01:19;;;;;;;27.70;5.77;;;;;;;7.29;100.00;6721.44;5041360;28;20048;-67
2021/12/17 03:03:48;;;;;;;29.83;5.70;;;;;;;7.30;100.00;8050.03;5031576;28;20452;-67
2021/12/17 03:06:14;;;;;;;29.93;5.60;;;;;;;7.28;100.00;7242.53;5041363;28;20079;-67
2021/12/17 03:08:40;;;;;;;26.40;4.70;;;;;;;7.28;100.00;7523.31;5033529;28;20087;-68
2021/12/17 03:11:06;;;;;;;29.60;5.20;;;;;;;7.24;100.00;8474.16;5041212;28;20028;-67
2021/12/17 03:13:34;;;;;;;25.10;5.77;;;;;;;7.23;100.00;7831.09;5035147;28;20052;-67
2021/12/17 03:16:13;;;;;;;27.43;5.30;;;;;;;7.25;100.00;9061.50;5041598;28;20029;-67
2021/12/17 03:23:49;;;;;;;25.93;5.33;;;;;;;7.23;100.00;9162.34;5041575;28;20071;-67
2021/12/17 03:26:21;;;;;;;28.57;5.63;;;;;;;7.21;100.00;9136.72;5041083;28;20541;-67
2021/12/17 03:28:49;;;;;;;29.17;6.18;;;;;;;7.20;100.00;8323.97;5037606;28;20675;-67
2021/12/17 03:31:16;;;;;;;29.03;6.03;;;;;;;7.20;100.00;8541.72;5040705;28;20041;-67
2021/12/17 03:33:44;;;;;;;27.80;5.93;;;;;;;7.21;100.00;7990.13;5038826;28;20111;-67
2021/12/17 03:36:14;;;;;;;31.10;6.13;;;;;;;7.21;100.00;7699.16;5040993;28;20306;-67
2021/12/17 03:38:41;;;;;;;30.57;5.67;;;;;;;7.20;100.00;7860.91;5040065;28;20063;-67
2021/12/17 03:41:22;;;;;;;29.70;6.10;;;;;;;7.21;100.00;6495.00;5036404;28;20028;-67
2021/12/17 03:43:49;;;;;;;27.37;6.00;;;;;;;7.19;100.00;7440.81;5040867;28;20374;-67
2021/12/17 03:46:16;;;;;;;33.33;6.47;;;;;;;7.17;100.00;8829.53;5034759;28;20063;-67
2021/12/17 03:48:43;;;;;;;34.47;7.10;;;;;;;7.19;100.00;10673.03;5039916;28;20029;-67
2021/12/17 03:51:17;;;;;;;31.43;6.47;;;;;;;7.19;100.00;10495.75;5040509;28;20031;-67
2021/12/17 03:53:52;;;;;;;31.73;6.70;;;;;;;7.18;100.00;9247.47;5040280;28;20572;-67
2021/12/17 03:56:18;;;;;;;33.07;6.97;;;;;;;7.16;100.00;8998.91;5040484;28;20029;-67
2021/12/17 03:58:43;;;;;;;36.67;5.97;;;;;;;7.15;100.00;9206.25;5040503;28;20107;-72
2021/12/17 04:01:09;;;;;;;41.70;6.70;;;;;;;7.14;100.00;9593.44;5040950;28;20145;-72
2021/12/17 04:03:36;;;;;;;39.97;6.80;;;;;;;7.14;100.00;9003.56;5031267;28;20801;-72
2021/12/17 04:06:02;;;;;;;37.37;7.00;;;;;;;7.14;100.00;9803.44;5040757;28;20077;-72
2021/12/17 04:08:28;;;;;;;38.20;8.10;;;;;;;7.16;100.00;11647.41;5040171;28;20025;-72
2021/12/17 04:11:02;;;;;;;38.50;7.83;;;;;;;7.17;100.00;12113.91;5041125;28;20024;-72
2021/12/17 04:13:32;;;;;;;38.93;6.97;;;;;;;7.17;100.00;11896.03;5034870;28;20440;-72
2021/12/17 04:16:04;;;;;;;37.63;7.20;;;;;;;7.16;100.00;10994.06;5040485;28;20036;-72
2021/12/17 04:18:31;;;;;;;38.00;6.23;;;;;;;7.18;100.00;11027.34;5035453;28;20083;-72
2021/12/17 04:20:59;;;;;;;34.37;7.10;;;;;;;7.18;100.00;13304.97;5039916;28;20033;-72
2021/12/17 04:23:24;;;;;;;35.30;6.90;;;;;;;7.19;100.00;13158.25;5039646;28;20021;-72
2021/12/17 04:25:50;;;;;;;39.33;7.93;;;;;;;7.19;100.00;12935.38;5043732;28;20653;-72
2021/12/17 04:28:17;;;;;;;43.70;7.80;;;;;;;7.18;100.00;12352.31;5041620;28;20032;-72
2021/12/17 04:30:43;;;;;;;34.50;7.20;;;;;;;7.21;100.00;11283.88;5042143;28;20057;-72
2021/12/17 04:33:08;;;;;;;41.20;6.67;;;;;;;7.21;100.00;10199.94;5042861;28;20110;-72
2021/12/17 04:35:34;;;;;;;40.90;7.53;;;;;;;7.22;100.00;7479.22;5037862;28;20021;-72
2021/12/17 04:38:00;;;;;;;36.27;7.20;;;;;;;7.23;100.00;4421.88;5043554;28;20047;-72
2021/12/17 04:40:27;;;;;;;42.67;7.93;;;;;;;7.22;100.00;1715.72;5044180;28;20384;-72
2021/12/17 04:43:15;;;;;;;37.13;6.90;;;;;;;7.23;100.00;475.88;5031735;28;20485;-72
2021/12/17 04:45:53;;;;;;;39.47;7.80;;;;;;;7.23;100.00;-806.44;5033736;28;20035;-72
2021/12/17 04:59:14;;;;;;;46.97;8.00;;;;;;;7.23;100.00;-7940.88;5042525;28;20039;-72
2021/12/17 05:01:40;;;;;;;41.83;7.33;;;;;;;7.23;100.00;-10010.22;5041466;28;20493;-72
2021/12/17 05:04:05;;;;;;;55.90;8.40;;;;;;;7.22;100.00;-19355.47;5037798;28;20017;-72
2021/12/17 05:06:32;;;;;;;45.23;8.00;;;;;;;7.22;100.00;-19355.34;5042873;28;20052;-72
2021/12/17 05:09:04;;;;;;;49.30;8.40;;;;;;;7.20;100.00;-19354.81;5037068;28;20052;-72
2021/12/17 05:19:49;;;;;;;46.23;8.60;;;;;;;7.16;100.00;-19353.91;5042712;28;20059;-72
2021/12/17 05:22:15;;;;;;;64.67;9.27;;;;;;;7.15;100.00;-19353.50;5036663;28;20453;-72
2021/12/17 05:24:41;;;;;;;59.23;9.17;;;;;;;7.14;100.00;-19353.34;5043423;28;20159;-72
2021/12/17 05:27:07;;;;;;;68.27;9.77;;;;;;;7.14;100.00;-19353.22;5037960;28;20108;-72
2021/12/17 05:29:32;;;;;;;68.90;9.10;;;;;;;7.12;100.00;-19352.69;5042464;28;20040;-72
2021/12/17 05:31:58;;;;;;;57.60;9.50;;;;;;;7.10;100.00;-19352.31;5038904;28;20037;-72
2021/12/17 05:34:23;;;;;;;63.50;8.93;;;;;;;7.10;100.00;-19352.16;5043466;28;20164;-72
2021/12/17 05:36:49;;;;;;;57.47;9.23;;;;;;;7.12;100.00;-19352.84;5042376;28;20472;-72
2021/12/17 05:39:14;;;;;;;68.97;9.43;;;;;;;7.15;100.00;-19353.63;5042009;28;20572;-72
2021/12/17 05:41:40;;;;;;;61.10;9.27;;;;;;;7.16;100.00;-19353.75;5040479;28;20029;-72
2021/12/17 05:44:05;;;;;;;72.37;9.40;;;;;;;7.16;100.00;-19353.91;5043288;28;20393;-72
2021/12/17 05:47:04;;;;;;;64.13;9.70;;;;;;;7.18;100.00;-19354.28;5041270;28;20044;-72
2021/12/17 05:49:25;;;;;;;60.13;8.88;;;;;;;7.17;100.00;-19354.03;5029381;28;20045;-72
2021/12/17 05:51:52;;;;;;;57.67;9.60;;;;;;;7.17;100.00;-19354.03;5041978;28;20032;-72
2021/12/17 05:54:17;;;;;;;57.83;10.10;;;;;;;7.15;100.00;-19353.63;5043048;28;20036;-72
2021/12/17 05:56:43;;;;;;;60.43;9.53;;;;;;;7.16;100.00;-19353.75;5040400;28;20041;-72
2021/12/17 05:59:09;;;;;;;58.07;9.53;;;;;;;7.15;100.00;-19353.50;5042392;28;20110;-72
2021/12/17 06:01:35;;;;;;;57.63;10.00;;;;;;;7.16;100.00;-19353.75;5040493;28;20024;-72
2021/12/17 06:04:02;;;;;;;70.23;8.37;;;;;;;7.17;100.00;-19354.03;5034516;28;20045;-72
2021/12/17 06:06:38;;;;;;;62.03;8.67;;;;;;;7.17;100.00;-19354.03;5041833;28;20025;-72
2021/12/17 06:09:08;;;;;;;65.17;8.90;;;;;;;7.19;100.00;-19354.69;5033901;28;20049;-72
2021/12/17 06:11:35;;;;;;;61.50;8.97;;;;;;;7.18;100.00;-19354.41;5040990;28;20499;-72
2021/12/17 06:14:01;;;;;;;60.07;9.70;;;;;;;7.18;100.00;-19354.41;5035983;28;20025;-72
2021/12/17 06:16:27;;;;;;;53.83;9.83;;;;;;;7.22;100.00;-19355.34;5041804;28;20115;-72
2021/12/17 06:18:53;;;;;;;58.83;8.23;;;;;;;7.20;100.00;-19354.81;5035101;28;20108;-72
2021/12/17 06:21:19;;;;;;;64.43;10.17;;;;;;;7.22;100.00;-19355.47;5040126;28;20029;-72
2021/12/17 06:23:44;;;;;;;53.03;8.90;;;;;;;7.23;100.00;-19355.59;5035975;28;20029;-72
2021/12/17 06:26:10;;;;;;;66.30;10.73;;;;;;;7.25;100.00;-19356.25;5041180;28;20044;-72
2021/12/17 06:28:35;;;;;;;58.57;9.87;;;;;;;7.25;100.00;-19356.13;5040458;28;20028;-72
2021/12/17 06:31:01;;;;;;;51.57;8.90;;;;;;;7.24;100.00;-19355.88;5040775;28;20028;-72
2021/12/17 06:33:26;;;;;;;53.47;8.43;;;;;;;7.23;100.00;-19355.75;5041893;28;20043;-72
2021/12/17 06:35:51;;;;;;;49.00;9.10;;;;;;;7.22;100.00;-19355.34;5042328;28;20032;-72
2021/12/17 06:38:17;;;;;;;58.87;8.87;;;;;;;7.21;100.00;-19355.06;5037926;28;20017;-72
2021/12/17 06:40:42;;;;;;;43.77;8.27;;;;;;;7.23;100.00;-19355.59;5038400;28;20155;-72
2021/12/17 06:43:08;;;;;;;48.80;7.77;;;;;;;7.21;100.00;-19355.06;5037602;28;20764;-72
2021/12/17 06:46:17;;;;;;;39.07;7.10;;;;;;;7.19;100.00;-19354.69;5042153;28;20230;-72
2021/12/17 06:48:28;;;;;;;38.40;6.50;;;;;;;7.18;100.00;-19354.41;5036159;28;20040;-72
2021/12/17 06:59:13;;;;;;;37.37;6.23;;;;;;;7.19;100.00;-19354.56;5034905;28;20404;-72
2021/12/17 07:10:14;;;;;;;32.50;5.90;;;;;;;7.17;100.00;-19354.16;5036413;28;20534;-72
2021/12/17 07:34:09;;;;;;;23.87;5.30;;;;;;;7.16;100.00;-19353.75;5041240;28;20040;-72
2021/12/17 07:36:56;;;;;;;32.07;6.47;;;;;;;7.14;100.00;-19353.22;5040818;28;20111;-72
2021/12/17 07:39:21;;;;;;;32.37;6.23;;;;;;;7.14;100.00;-19353.22;5034971;28;20017;-72
2021/12/17 07:41:47;;;;;;;24.63;5.67;;;;;;;7.13;100.00;-19352.97;5037419;28;20033;-72
2021/12/17 07:44:13;;;;;;;28.97;6.03;;;;;;;7.12;100.00;-19352.69;5033090;28;20032;-72
2021/12/17 07:46:38;;;;;;;30.83;6.97;;;;;;;7.14;100.00;-19353.22;5038396;28;20025;-72
2021/12/17 07:49:04;;;;;;;25.80;6.10;;;;;;;7.13;100.00;-19352.97;5033175;28;20017;-72
2021/12/17 07:51:29;;;;;;;24.77;5.20;;;;;;;7.16;100.00;-19353.75;5040032;28;20560;-72
2021/12/17 07:53:56;;;;;;;27.10;5.50;;;;;;;7.16;100.00;-19353.75;5040681;28;20649;-72
2021/12/17 07:56:27;;;;;;;25.87;5.53;;;;;;;7.17;100.00;-19354.03;5040646;28;20031;-72
2021/12/17 07:58:52;;;;;;;24.58;5.45;;;;;;;7.17;100.00;-19354.03;5033382;28;20017;-72
2021/12/17 08:01:19;;;;;;;24.33;5.80;;;;;;;7.16;100.00;-19353.75;5045115;28;20047;-72
2021/12/17 08:03:45;;;;;;;23.73;5.57;;;;;;;7.18;100.00;-19354.28;5029906;28;20058;-72
2021/12/17 08:06:10;;;;;;;22.27;5.63;;;;;;;7.18;100.00;-19354.41;5043312;28;20033;-72
2021/12/17 08:08:36;;;;;;;22.20;5.70;;;;;;;7.20;100.00;-19354.94;5036981;28;20039;-72
2021/12/17 08:11:02;;;;;;;21.40;5.37;;;;;;;7.21;100.00;-19355.06;5044015;28;20056;-72
2021/12/17 08:13:31;;;;;;;22.70;5.93;;;;;;;7.20;100.00;-19354.94;5038344;28;20112;-72
2021/12/17 08:18:45;;;;;;;18.33;4.70;;;;;;;7.20;100.00;-19354.94;5039747;28;20047;-72
2021/12/17 08:31:36;;;;;;;19.60;4.63;;;;;;;7.23;100.00;-19355.59;5038544;28;20075;-72
2021/12/17 08:34:03;;;;;;;18.20;4.40;;;;;;;7.24;100.00;-19355.88;5044182;28;20036;-69
2021/12/17 08:36:29;;;;;;;22.20;5.63;;;;;;;7.22;100.00;-19355.34;5043520;28;20029;-69
2021/12/17 08:38:54;;;;;;;19.57;5.70;;;;;;;7.26;100.00;-19356.41;5044360;28;20032;-69
2021/12/17 08:41:21;;;;;;;25.13;5.57;;;;;;;7.28;100.00;-19356.94;5044580;28;20028;-69
2021/12/17 08:43:47;;;;;;;18.17;5.83;;;;;;;7.31;100.00;-19357.72;5043613;28;20420;-69
2021/12/17 08:46:13;;;;;;;18.37;5.97;;;;;;;7.32;100.00;-19357.97;5044266;28;20028;-69
2021/12/17 08:48:39;;;;;;;17.70;5.40;;;;;;;7.34;100.00;-19358.50;5039275;28;20100;-69
2021/12/17 08:51:07;;;;;;;18.83;5.20;;;;;;;7.33;100.00;-19358.38;5044300;28;20159;-69
2021/12/17 08:53:34;;;;;;;14.43;5.20;;;;;;;7.38;100.00;-19359.44;5042475;28;20061;-69
2021/12/17 08:56:00;;;;;;;16.27;5.10;;;;;;;7.39;100.00;-19359.69;5043835;28;20100;-69
2021/12/17 08:58:25;;;;;;;15.93;5.23;;;;;;;7.38;100.00;-19359.56;5041154;28;20139;-69
2021/12/17 09:00:50;;;;;;;11.47;4.33;;;;;;;7.40;100.00;-19359.97;5032669;28;20107;-69
2021/12/17 09:03:16;;;;;;;12.10;3.63;;;;;;;7.40;100.00;-19360.09;5034789;28;20049;-69
2021/12/17 09:05:44;;;;;;;15.47;4.87;;;;;;;7.46;100.00;-19361.56;5043713;28;20096;-71
2021/12/17 09:08:11;;;;;;;18.00;5.20;;;;;;;7.49;100.00;-19362.47;5041880;28;20033;-71
2021/12/17 09:10:37;;;;;;;12.33;4.40;;;;;;;7.46;100.00;-19361.56;5043199;28;20021;-71
2021/12/17 09:13:04;;;;;;;12.40;4.60;;;;;;;7.48;100.00;-19362.22;5032382;28;20052;-71
2021/12/17 09:15:30;;;;;;;12.63;4.17;;;;;;;7.53;100.00;-19363.41;5041602;28;20025;-71
2021/12/17 09:17:55;;;;;;;12.87;4.90;;;;;;;7.54;100.00;-19363.78;5031357;28;20026;-71
2021/12/17 09:20:21;;;;;;;11.97;4.50;;;;;;;7.54;100.00;-19363.78;5039554;28;20477;-71
2021/12/17 09:22:46;;;;;;;12.43;4.10;;;;;;;7.58;100.00;-19364.84;5042492;28;20107;-70
2021/12/17 09:25:12;;;;;;;12.53;4.27;;;;;;;7.61;100.00;-19365.63;5043367;28;20060;-71
2021/12/17 09:27:37;;;;;;;9.60;3.90;;;;;;;7.60;100.00;-19365.38;5039112;28;20167;-71
2021/12/17 09:30:09;;;;;;;9.83;3.30;;;;;;;7.61;100.00;-19365.50;5042561;28;20029;-69
2021/12/17 09:32:35;;;;;;;9.93;3.42;;;;;;;7.68;100.00;-19367.22;5039749;28;20053;-68
2021/12/17 09:35:00;;;;;;;9.63;3.80;;;;;;;7.70;100.00;-19367.75;5043481;28;20067;-69
2021/12/17 09:37:26;;;;;;;11.00;3.63;;;;;;;7.72;100.00;-19368.28;5042066;28;20219;-69
2021/12/17 09:39:51;;;;;;;10.20;3.30;;;;;;;7.73;100.00;-19368.53;5042833;28;20047;-69
2021/12/17 09:42:16;;;;;;;8.23;2.80;;;;;;;7.74;100.00;-19368.94;5041562;28;20033;-69
2021/12/17 09:44:42;;;;;;;9.07;3.43;;;;;;;7.76;100.00;-19369.34;5042845;28;20036;-68
2021/12/17 09:47:08;;;;;;;7.17;2.97;;;;;;;7.81;100.00;-19370.78;5038578;28;20021;-68
2021/12/17 09:49:34;;;;;;;7.70;3.00;;;;;;;7.79;100.00;-19370.13;5041494;28;20392;-69
2021/12/17 09:51:59;;;;;;;7.47;2.60;;;;;;;7.79;100.00;-19370.13;5040938;28;20136;-69
2021/12/17 09:54:25;;;;;;;5.70;2.10;;;;;;;7.82;100.00;-19370.94;5042236;28;20056;-68
2021/12/17 09:56:51;;;;;;;6.20;2.37;;;;;;;7.85;100.00;-19371.72;5038283;28;20052;-69
2021/12/17 09:59:16;;;;;;;6.10;2.33;;;;;;;7.87;100.00;-19372.25;5040618;28;20437;-69
2021/12/17 10:01:44;;;;;;;5.37;2.20;;;;;;;7.84;100.00;-19371.59;5036426;28;20082;-69
2021/12/17 10:04:26;;;;;;;9.07;2.60;;;;;;;7.85;100.00;-19371.84;5040513;28;20035;-69
2021/12/17 10:06:52;;;;;;;5.68;2.30;;;;;;;7.85;100.00;-19371.72;5041551;28;20036;-69
2021/12/17 10:09:18;;;;;;;7.67;2.53;;;;;;;7.81;100.00;-19370.66;5035823;28;20060;-68
2021/12/17 10:12:03;;;;;;;12.30;2.90;;;;;;;7.83;100.00;-19371.19;5039519;28;20063;-69
2021/12/17 10:14:29;;;;;;;10.90;3.10;;;;;;;7.82;100.00;-19370.94;5039141;28;20087;-69
2021/12/17 10:17:12;;;;;;;6.50;2.47;;;;;;;7.85;100.00;-19371.72;5037735;28;20448;-69
2021/12/17 10:19:49;;;;;;;6.93;2.60;;;;;;;7.83;100.00;-19371.19;5040266;28;20444;-69
2021/12/17 10:22:18;;;;;;;6.90;2.60;;;;;;;7.85;100.00;-19371.84;5034901;28;20037;-69
2021/12/17 10:24:57;;;;;;;7.37;2.70;;;;;;;7.84;100.00;-19371.44;5043073;28;20120;-69
2021/12/17 10:27:26;;;;;;;4.70;2.30;;;;;;;7.82;100.00;-19370.94;5044834;28;20783;-69
2021/12/17 10:29:53;;;;;;;5.23;2.30;;;;;;;7.85;100.00;-19371.72;5042313;28;20473;-69
2021/12/17 10:32:20;;;;;;;7.60;2.70;;;;;;;7.90;100.00;-19373.03;5039373;28;20036;-69
2021/12/17 10:35:09;;;;;;;12.17;2.53;;;;;;;7.91;100.00;-19373.44;5041912;28;20112;-69
2021/12/17 10:37:43;;;;;;;5.57;2.10;;;;;;;7.84;100.00;-19371.44;5038365;28;20020;-69
2021/12/17 10:40:17;;;;;;;5.30;2.00;;;;;;;7.83;100.00;-19371.31;5041818;28;20032;-69
2021/12/17 10:42:51;;;;;;;6.30;2.20;;;;;;;7.87;100.00;-19372.25;5035962;28;20025;-69
2021/12/17 10:45:25;;;;;;;7.70;2.47;;;;;;;7.90;100.00;-19373.16;5038944;28;20021;-69
2021/12/17 10:50:49;;;;;;;7.60;2.50;;;;;;;7.92;100.00;-19373.56;5038791;28;20559;-69
2021/12/17 10:53:15;;;;;;;6.30;2.03;;;;;;;7.91;100.00;-19373.31;5041677;28;20405;-69
2021/12/17 10:55:45;;;;;;;5.97;2.27;;;;;;;7.96;100.00;-19374.63;5041820;28;20021;-69
2021/12/17 10:58:10;;;;;;;5.87;2.30;;;;;;;7.99;100.00;-19375.28;5032205;28;20021;-69
2021/12/17 11:01:07;;;;;;;7.03;2.40;;;;;;;8.00;100.00;-19375.69;5041404;28;20264;-69
2021/12/17 11:03:40;;;;;;;7.57;2.80;;;;;;;7.97;100.00;-19374.75;5029949;28;20136;-69
2021/12/17 11:06:05;;;;;;;5.83;2.73;;;;;;;7.97;100.00;-19374.88;5037379;28;20062;-69
2021/12/17 11:08:37;;;;;;;9.83;3.40;;;;;;;7.93;100.00;-19373.81;5031008;28;20057;-69
2021/12/17 11:11:11;;;;;;;8.40;3.50;;;;;;;7.95;100.00;-19374.34;5041371;28;20685;-69
2021/12/17 11:13:52;;;;;;;6.90;3.17;;;;;;;7.94;100.00;-19374.09;5032151;28;20060;-69
2021/12/17 11:16:20;;;;;;;7.13;3.40;;;;;;;8.00;100.00;-19375.69;5037454;28;20032;-69
2021/12/17 11:18:47;;;;;;;9.17;3.60;;;;;;;8.00;100.00;-19375.69;5033191;28;20455;-69
2021/12/17 11:21:13;;;;;;;7.87;3.30;;;;;;;7.96;100.00;-19374.63;5041010;28;20112;-69
2021/12/17 11:23:39;;;;;;;10.63;4.17;;;;;;;8.03;100.00;-19376.47;5033913;28;20666;-69
2021/12/17 11:26:04;;;;;;;7.53;3.73;;;;;;;8.07;100.00;-19377.53;5041910;28;20016;-69
2021/12/17 11:28:30;;;;;;;9.20;3.60;;;;;;;8.09;100.00;-19377.91;5033148;28;20629;-69
2021/12/17 11:30:56;;;;;;;10.50;3.63;;;;;;;8.11;100.00;-19378.44;5041063;28;20056;-69
2021/12/17 11:33:21;;;;;;;8.30;3.47;;;;;;;8.14;100.00;-19379.25;5034428;28;20028;-69
2021/12/17 11:35:49;;;;;;;12.53;3.57;;;;;;;8.19;100.00;-19380.69;5041409;28;20032;-69
2021/12/17 11:38:38;;;;;;;10.60;4.27;;;;;;;8.20;100.00;-19380.81;5035586;28;20102;-69
2021/12/17 11:41:30;;;;;;;9.17;3.73;;;;;;;8.26;100.00;-19382.28;5040604;28;20047;-69
2021/12/17 11:44:01;;;;;;;6.87;3.23;;;;;;;8.30;100.00;-19383.31;5037981;28;20108;-69
2021/12/17 11:46:32;;;;;;;6.78;3.20;;;;;;;8.32;100.00;-19383.84;5040483;28;20028;-69
2021/12/17 11:49:15;;;;;;;8.13;3.77;;;;;;;8.27;100.00;-19382.53;5039619;28;20728;-69
2021/12/17 11:51:41;;;;;;;8.33;3.57;;;;;;;8.26;100.00;-19382.28;5032561;28;20024;-69
2021/12/17 11:54:08;;;;;;;10.17;4.40;;;;;;;8.23;100.00;-19381.75;5040732;28;20628;-69
2021/12/17 11:56:44;;;;;;;10.40;4.53;;;;;;;8.25;100.00;-19382.16;5035465;28;20060;-69
2021/12/17 11:59:25;;;;;;;7.60;4.00;;;;;;;8.31;100.00;-19383.59;5041086;28;20074;-69
2021/12/17 12:02:02;;;;;;;9.38;3.75;;;;;;;8.31;100.00;-19383.59;5040021;28;20024;-69
2021/12/17 12:04:33;;;;;;;8.10;3.43;;;;;;;8.36;100.00;-19384.91;5039757;28;20036;-69
2021/12/17 12:07:11;;;;;;;10.55;4.18;;;;;;;8.40;100.00;-19386.09;5037771;28;20056;-69
2021/12/17 12:09:58;;;;;;;10.33;3.60;;;;;;;8.45;100.00;-19387.28;5031112;28;20045;-69
2021/12/17 12:12:29;;;;;;;7.53;3.37;;;;;;;8.45;100.00;-19387.41;5019766;28;20052;-69
2021/12/17 12:15:15;;;;;;;7.95;3.53;;;;;;;8.49;100.00;-19388.34;5034263;28;20032;-69
2021/12/17 12:18:01;;;;;;;9.43;3.67;;;;;;;8.49;100.00;-19388.47;5027493;28;20064;-69
2021/12/17 12:20:48;;;;;;;8.60;3.93;;;;;;;8.55;100.00;-19389.78;5027592;28;20033;-69
2021/12/17 12:23:19;;;;;;;9.07;3.93;;;;;;;8.60;100.00;-19391.13;5026459;28;20029;-69
2021/12/17 12:26:15;;;;;;;12.13;4.87;;;;;;;8.63;100.00;-19391.91;5034976;28;20088;-69
2021/12/17 12:28:49;;;;;;;10.63;4.13;;;;;;;8.70;100.00;-19393.88;5026313;28;20039;-69
2021/12/17 12:31:24;;;;;;;9.77;4.03;;;;;;;8.61;100.00;-19391.50;5034814;28;20044;-69
2021/12/17 12:33:58;;;;;;;10.27;4.20;;;;;;;8.68;100.00;-19393.34;5030916;28;20160;-69
2021/12/17 12:36:45;;;;;;;10.03;4.53;;;;;;;8.66;100.00;-19392.81;5031801;28;20036;-69
2021/12/17 12:39:30;;;;;;;9.63;3.83;;;;;;;8.54;100.00;-19389.53;5028871;28;20032;-69
2021/12/17 12:41:55;;;;;;;6.17;3.03;;;;;;;8.58;100.00;-19390.72;5032526;28;20052;-69
2021/12/17 12:44:39;;;;;;;12.10;3.70;;;;;;;8.62;100.00;-19391.78;5034182;28;20429;-69
2021/12/17 12:47:05;;;;;;;9.27;4.00;;;;;;;8.64;100.00;-19392.31;5036714;28;20394;-69
2021/12/17 12:49:51;;;;;;;8.30;3.57;;;;;;;8.60;100.00;-19391.25;5044171;28;20036;-69
2021/12/17 12:52:27;;;;;;;9.60;3.70;;;;;;;8.58;100.00;-19390.72;5022443;28;20473;-69
2021/12/17 12:54:55;;;;;;;8.23;3.57;;;;;;;8.67;100.00;-19392.97;5042035;28;20075;-69
2021/12/17 12:57:25;;;;;;;8.93;4.30;;;;;;;8.63;100.00;-19392.03;5039978;28;20554;-69
2021/12/17 12:59:52;;;;;;;11.10;4.70;;;;;;;8.68;100.00;-19393.22;5031484;28;20098;-69
2021/12/17 13:02:18;;;;;;;7.03;3.20;;;;;;;8.56;100.00;-19390.19;5031163;28;20045;-69
2021/12/17 13:04:45;;;;;;;8.33;3.00;;;;;;;8.63;100.00;-19392.03;5037279;28;20033;-69
2021/12/17 13:07:13;;;;;;;6.23;2.87;;;;;;;8.68;100.00;-19393.22;5039290;28;20033;-69
2021/12/17 13:09:43;;;;;;;7.87;4.13;;;;;;;8.64;100.00;-19392.31;5036616;28;20129;-69
2021/12/17 13:12:09;;;;;;;6.50;2.67;;;;;;;8.56;100.00;-19390.06;5031539;28;20048;-69
2021/12/17 13:14:42;;;;;;;5.73;2.80;;;;;;;8.50;100.00;-19388.75;5037692;28;20028;-69
2021/12/17 13:17:41;;;;;;;6.90;2.47;;;;;;;8.52;100.00;-19389.13;5037477;28;20025;-69
2021/12/17 13:20:53;;;;;;;8.03;3.00;;;;;;;8.51;100.00;-19389.00;5035655;28;20086;-69
2021/12/17 13:23:18;;;;;;;9.90;3.60;;;;;;;8.51;100.00;-19388.88;5036683;28;20037;-69
2021/12/17 13:25:44;;;;;;;8.70;3.30;;;;;;;8.50;100.00;-19388.63;5034065;28;20062;-69
2021/12/17 13:28:09;;;;;;;12.77;3.77;;;;;;;8.46;100.00;-19387.56;5031634;28;20778;-70
2021/12/17 13:30:36;;;;;;;10.33;3.90;;;;;;;8.46;100.00;-19387.56;5040011;28;20061;-69
2021/12/17 13:33:01;;;;;;;13.57;3.80;;;;;;;8.48;100.00;-19388.22;5038075;28;20036;-69
2021/12/17 13:35:30;;;;;;;9.87;3.50;;;;;;;8.51;100.00;-19389.00;5036924;28;20021;-69
2021/12/17 13:38:01;;;;;;;8.77;3.30;;;;;;;8.48;100.00;-19388.09;5038640;28;20489;-69
2021/12/17 13:40:28;;;;;;;11.13;4.15;;;;;;;8.55;100.00;-19389.94;5038890;28;20120;-69
2021/12/17 13:42:55;;;;;;;8.13;3.80;;;;;;;8.51;100.00;-19389.00;5038397;28;20040;-68
2021/12/17 13:45:21;;;;;;;10.13;3.20;;;;;;;8.46;100.00;-19387.56;5038149;28;20420;-69
2021/12/17 13:47:55;;;;;;;7.67;2.93;;;;;;;8.43;100.00;-19386.75;5040787;28;20033;-69
2021/12/17 13:50:31;;;;;;;7.40;2.87;;;;;;;8.43;100.00;-19386.91;5034763;28;20033;-69
2021/12/17 13:53:02;;;;;;;5.33;2.33;;;;;;;8.37;100.00;-19385.19;5038755;28;20032;-69
2021/12/17 13:55:43;;;;;;;5.40;2.27;;;;;;;8.36;100.00;-19384.91;5031872;28;20044;-69
2021/12/17 13:58:13;;;;;;;8.17;2.40;;;;;;;8.34;100.00;-19384.53;5036554;28;20035;-69
2021/12/17 14:00:42;;;;;;;9.03;2.80;;;;;;;8.36;100.00;-19385.06;5037918;28;20029;-69
2021/12/17 14:03:14;;;;;;;6.47;2.30;;;;;;;8.35;100.00;-19384.66;5002210;28;20104;-69
2021/12/17 14:05:44;;;;;;;6.78;2.95;;;;;;;8.32;100.00;-19384.00;5000388;28;20454;-69
2021/12/17 14:08:12;;;;;;;7.40;2.90;;;;;;;8.32;100.00;-19383.84;4998114;28;20086;-69
2021/12/17 14:10:39;;;;;;;10.20;2.87;;;;;;;8.28;100.00;-19382.81;5002280;28;20030;-69
2021/12/17 14:13:14;;;;;;;8.83;2.90;;;;;;;8.27;100.00;-19382.53;4998522;28;20057;-69
2021/12/17 14:15:41;;;;;;;6.47;2.70;;;;;;;8.25;100.00;-19382.00;5014456;28;20489;-69
2021/12/17 14:18:08;;;;;;;7.37;2.93;;;;;;;8.23;100.00;-19381.75;4998654;28;20025;-69